createdAt,value
2023-04-26T00:00:45.801Z,5.49
2023-04-26T00:03:13.886Z,5.28
2023-04-26T00:05:40.686Z,5.38
2023-04-26T00:08:07.312Z,5.30
2023-04-26T00:10:33.823Z,5.27
2023-04-26T00:13:00.405Z,5.19
2023-04-26T00:15:27.296Z,5.18
2023-04-26T00:17:53.843Z,5.12
2023-04-26T00:20:20.325Z,5.10
2023-04-26T00:22:46.721Z,5.04
2023-04-26T00:25:14.102Z,5.03
2023-04-26T00:27:44.285Z,4.93
2023-04-26T00:30:11.246Z,4.84
2023-04-26T00:32:37.894Z,4.75
2023-04-26T00:35:04.988Z,4.70
2023-04-26T00:37:31.684Z,4.69
2023-04-26T00:39:58.313Z,4.65
2023-04-26T00:42:27.142Z,4.66
2023-04-26T00:44:57.567Z,4.60
2023-04-26T00:47:25.167Z,4.58
2023-04-26T00:49:52.699Z,4.64
2023-04-26T00:52:19.307Z,4.66
2023-04-26T00:54:47.625Z,4.56
2023-04-26T00:57:14.413Z,4.46
2023-04-26T00:59:41.595Z,4.47
2023-04-26T01:02:09.738Z,4.30
2023-04-26T01:04:37.416Z,4.31
2023-04-26T01:07:04.040Z,4.25
2023-04-26T01:09:32.029Z,4.29
2023-04-26T01:11:58.752Z,4.24
2023-04-26T01:14:25.179Z,4.18
2023-04-26T01:16:52.526Z,4.25
2023-04-26T01:19:19.082Z,4.24
2023-04-26T01:21:46.142Z,4.12
2023-04-26T01:24:13.870Z,4.12
2023-04-26T01:26:45.976Z,4.23
2023-04-26T01:29:16.951Z,4.14
2023-04-26T01:31:43.836Z,4.29
2023-04-26T01:34:10.387Z,4.22
2023-04-26T01:36:37.093Z,4.27
2023-04-26T01:39:04.055Z,4.31
2023-04-26T01:41:30.728Z,4.19
2023-04-26T01:43:57.194Z,4.19
2023-04-26T01:46:23.798Z,4.20
2023-04-26T01:48:50.581Z,4.14
2023-04-26T01:51:17.231Z,4.19
2023-04-26T01:53:43.910Z,4.17
2023-04-26T01:56:10.683Z,4.15
2023-04-26T01:58:37.186Z,3.89
2023-04-26T02:01:07.780Z,4.08
2023-04-26T02:03:35.019Z,3.61
2023-04-26T02:06:01.701Z,3.76
2023-04-26T02:08:28.156Z,3.61
2023-04-26T02:10:54.722Z,3.53
2023-04-26T02:13:21.396Z,3.36
2023-04-26T02:15:48.410Z,3.09
2023-04-26T02:18:15.423Z,3.10
2023-04-26T02:20:45.782Z,2.97
2023-04-26T02:23:12.686Z,2.82
2023-04-26T02:25:39.711Z,2.67
2023-04-26T02:28:09.436Z,2.56
2023-04-26T02:30:36.817Z,2.41
2023-04-26T02:33:03.305Z,2.42
2023-04-26T02:35:29.917Z,2.25
2023-04-26T02:37:56.488Z,2.14
2023-04-26T02:40:22.958Z,2.10
2023-04-26T02:42:49.637Z,2.12
2023-04-26T02:45:16.319Z,2.01
2023-04-26T02:47:42.752Z,2.08
2023-04-26T02:50:09.880Z,2.01
2023-04-26T02:52:38.440Z,1.96
2023-04-26T02:55:05.347Z,1.98
2023-04-26T02:57:32.411Z,2.02
2023-04-26T02:59:59.050Z,1.89
2023-04-26T03:02:25.811Z,1.89
2023-04-26T03:04:52.887Z,1.78
2023-04-26T03:09:47.311Z,1.67
2023-04-26T03:12:13.724Z,1.81
2023-04-26T03:14:40.126Z,2.00
2023-04-26T03:17:06.485Z,2.03
2023-04-26T03:19:35.927Z,1.75
2023-04-26T03:22:02.647Z,1.73
2023-04-26T03:24:29.131Z,1.76
2023-04-26T03:26:55.632Z,1.56
2023-04-26T03:29:22.011Z,1.56
2023-04-26T03:31:48.591Z,1.55
2023-04-26T03:34:15.912Z,1.52
2023-04-26T03:36:42.551Z,1.45
2023-04-26T03:39:09.788Z,1.47
2023-04-26T03:41:39.392Z,1.48
2023-04-26T03:44:06.151Z,1.46
2023-04-26T03:46:32.680Z,1.52
2023-04-26T03:49:02.043Z,1.54
2023-04-26T03:51:28.618Z,1.55
2023-04-26T03:53:55.663Z,1.77
2023-04-26T03:56:22.073Z,1.96
2023-04-26T03:58:48.811Z,1.67
2023-04-26T04:01:15.736Z,1.67
2023-04-26T04:03:42.485Z,1.62
2023-04-26T04:06:09.257Z,1.51
2023-04-26T04:08:35.839Z,1.45
2023-04-26T04:11:04.732Z,1.14
2023-04-26T04:13:31.726Z,1.48
2023-04-26T04:15:58.474Z,1.31
2023-04-26T04:18:27.969Z,1.31
2023-04-26T04:20:54.367Z,1.30
2023-04-26T04:23:20.765Z,1.24
2023-04-26T04:25:48.998Z,1.27
2023-04-26T04:28:15.399Z,1.30
2023-04-26T04:30:43.691Z,1.33
2023-04-26T04:33:10.514Z,1.31
2023-04-26T04:35:36.959Z,1.12
2023-04-26T04:38:03.500Z,1.26
2023-04-26T04:40:34.326Z,1.36
2023-04-26T04:43:03.699Z,1.35
2023-04-26T04:45:30.471Z,1.44
2023-04-26T04:47:56.943Z,1.43
2023-04-26T04:50:23.599Z,1.50
2023-04-26T04:52:50.052Z,1.53
2023-04-26T04:55:16.819Z,1.53
2023-04-26T04:57:43.366Z,1.60
2023-04-26T05:00:10.817Z,1.66
2023-04-26T05:02:37.580Z,1.67
2023-04-26T05:05:05.180Z,1.72
2023-04-26T05:07:38.930Z,1.69
2023-04-26T05:10:05.573Z,1.87
2023-04-26T05:12:32.189Z,2.03
2023-04-26T05:14:58.660Z,2.14
2023-04-26T05:17:25.381Z,2.17
2023-04-26T05:19:51.848Z,2.26
2023-04-26T05:22:21.118Z,2.28
2023-04-26T05:24:48.083Z,2.36
2023-04-26T05:27:14.888Z,2.52
2023-04-26T05:29:42.086Z,2.65
2023-04-26T05:32:08.929Z,3.13
2023-04-26T05:34:38.577Z,3.02
2023-04-26T05:37:05.023Z,3.10
2023-04-26T05:39:31.956Z,3.31
2023-04-26T05:41:58.531Z,3.50
2023-04-26T05:44:24.967Z,3.55
2023-04-26T05:46:51.513Z,3.80
2023-04-26T05:49:18.074Z,3.99
2023-04-26T05:51:44.463Z,4.35
2023-04-26T05:54:10.964Z,4.38
2023-04-26T05:56:37.423Z,4.49
2023-04-26T05:59:03.891Z,5.52
2023-04-26T06:01:30.948Z,6.72
2023-04-26T06:04:00.222Z,6.56
2023-04-26T06:06:28.289Z,7.47
2023-04-26T06:08:55.143Z,8.39
2023-04-26T06:11:21.644Z,8.15
2023-04-26T06:13:48.816Z,8.87
2023-04-26T06:16:15.965Z,8.81
2023-04-26T06:18:46.061Z,8.78
2023-04-26T06:21:12.507Z,9.57
2023-04-26T06:23:38.912Z,9.23
2023-04-26T06:26:05.456Z,9.25
2023-04-26T06:28:32.280Z,9.31
2023-04-26T06:30:58.680Z,9.49
2023-04-26T06:33:25.189Z,9.80
2023-04-26T06:35:52.478Z,9.28
2023-04-26T06:38:19.059Z,9.69
2023-04-26T06:40:55.610Z,10.18
2023-04-26T06:43:22.146Z,10.18
2023-04-26T06:45:48.594Z,10.87
2023-04-26T06:48:15.292Z,10.72
2023-04-26T06:50:41.774Z,11.00
2023-04-26T06:53:08.441Z,9.22
2023-04-26T06:55:35.285Z,9.02
2023-04-26T06:58:01.724Z,9.88
2023-04-26T07:00:28.341Z,10.15
2023-04-26T07:02:54.762Z,9.87
2023-04-26T07:05:21.833Z,9.30
2023-04-26T07:07:50.092Z,9.70
2023-04-26T07:10:16.843Z,10.01
2023-04-26T07:12:43.308Z,11.52
2023-04-26T07:15:10.134Z,10.65
2023-04-26T07:17:36.694Z,11.25
2023-04-26T07:20:03.705Z,10.77
2023-04-26T07:22:30.118Z,11.98
2023-04-26T07:24:56.500Z,12.25
2023-04-26T07:27:23.279Z,12.01
2023-04-26T07:29:53.362Z,13.12
2023-04-26T07:32:19.828Z,11.45
2023-04-26T07:34:46.369Z,13.46
2023-04-26T07:37:12.804Z,11.49
2023-04-26T07:39:39.229Z,10.11
2023-04-26T07:42:05.710Z,10.54
2023-04-26T07:44:32.197Z,12.30
2023-04-26T07:46:59.426Z,13.03
2023-04-26T07:49:25.981Z,12.91
2023-04-26T07:51:52.555Z,13.63
2023-04-26T07:54:19.028Z,14.09
2023-04-26T07:56:45.494Z,14.44
2023-04-26T07:59:15.446Z,11.62
2023-04-26T08:01:45.619Z,11.84
2023-04-26T08:04:12.351Z,12.85
2023-04-26T08:06:39.397Z,13.86
2023-04-26T08:09:05.787Z,14.35
2023-04-26T08:11:32.853Z,12.61
2023-04-26T08:13:59.348Z,11.97
2023-04-26T08:16:25.870Z,10.99
2023-04-26T08:18:52.543Z,12.45
2023-04-26T08:21:18.928Z,13.31
2023-04-26T08:23:48.266Z,14.73
2023-04-26T08:26:17.733Z,15.78
2023-04-26T08:28:44.153Z,16.34
2023-04-26T08:31:10.625Z,15.06
2023-04-26T08:33:37.025Z,14.26
2023-04-26T08:36:03.501Z,13.34
2023-04-26T08:38:29.922Z,12.19
2023-04-26T08:40:58.746Z,11.25
2023-04-26T08:43:27.489Z,11.12
2023-04-26T08:45:54.921Z,11.25
2023-04-26T08:48:21.971Z,10.95
2023-04-26T08:50:51.079Z,12.49
2023-04-26T08:53:22.219Z,11.98
2023-04-26T08:55:50.417Z,13.04
2023-04-26T08:58:21.116Z,14.44
2023-04-26T09:00:48.144Z,14.59
2023-04-26T09:03:14.840Z,15.05
2023-04-26T09:05:44.478Z,13.69
2023-04-26T09:08:17.135Z,15.55
2023-04-26T09:10:43.842Z,16.52
2023-04-26T09:13:11.988Z,16.79
2023-04-26T09:15:39.280Z,14.60
2023-04-26T09:18:21.862Z,14.30
2023-04-26T09:21:08.011Z,13.19
2023-04-26T09:23:35.261Z,13.56
2023-04-26T09:26:24.133Z,12.42
2023-04-26T09:28:51.725Z,12.23
2023-04-26T09:31:38.962Z,12.61
2023-04-26T09:34:05.923Z,13.02
2023-04-26T09:36:32.457Z,14.98
2023-04-26T09:39:02.619Z,14.31
2023-04-26T09:41:49.486Z,13.96
2023-04-26T09:44:23.775Z,12.84
2023-04-26T09:47:00.812Z,12.44
2023-04-26T09:49:27.866Z,12.04
2023-04-26T09:52:01.752Z,11.99
2023-04-26T09:54:45.075Z,11.23
2023-04-26T09:57:12.203Z,10.64
2023-04-26T09:59:48.529Z,11.28
2023-04-26T10:02:15.441Z,10.94
2023-04-26T10:04:47.095Z,10.97
2023-04-26T10:07:14.282Z,10.41
2023-04-26T10:09:41.942Z,11.00
2023-04-26T10:12:12.152Z,11.06
2023-04-26T10:14:38.831Z,10.94
2023-04-26T10:17:07.552Z,10.33
2023-04-26T10:19:34.934Z,10.51
2023-04-26T10:22:06.153Z,11.07
2023-04-26T10:24:33.921Z,10.80
2023-04-26T10:27:03.088Z,11.27
2023-04-26T10:29:48.110Z,11.90
2023-04-26T10:32:18.124Z,13.07
2023-04-26T10:34:44.710Z,13.76
2023-04-26T10:37:14.854Z,13.00
2023-04-26T10:39:42.489Z,12.38
2023-04-26T10:42:24.234Z,11.68
2023-04-26T10:44:55.361Z,11.96
2023-04-26T10:47:27.768Z,11.91
2023-04-26T10:50:04.289Z,11.38
2023-04-26T10:52:35.228Z,11.35
2023-04-26T10:55:02.766Z,11.68
2023-04-26T10:57:47.770Z,12.36
2023-04-26T11:00:17.964Z,11.90
2023-04-26T11:02:46.527Z,11.93
2023-04-26T11:05:31.786Z,11.10
2023-04-26T11:08:10.011Z,12.01
2023-04-26T11:10:39.730Z,12.40
2023-04-26T11:13:06.602Z,12.45
2023-04-26T11:15:33.518Z,12.33
2023-04-26T11:18:03.763Z,11.73
2023-04-26T11:20:44.386Z,11.78
2023-04-26T11:23:10.921Z,12.23
2023-04-26T11:25:39.003Z,11.57
2023-04-26T11:28:05.832Z,12.00
2023-04-26T11:30:33.185Z,12.49
2023-04-26T11:33:00.245Z,12.07
2023-04-26T11:35:27.869Z,12.26
2023-04-26T11:37:54.352Z,12.60
2023-04-26T11:40:20.862Z,12.42
2023-04-26T11:42:47.897Z,12.35
2023-04-26T11:45:17.441Z,12.64
2023-04-26T11:47:48.257Z,12.52
2023-04-26T11:50:15.550Z,11.90
2023-04-26T11:52:42.792Z,12.60
2023-04-26T11:55:10.472Z,12.92
2023-04-26T11:57:37.020Z,13.84
2023-04-26T12:00:14.626Z,14.30
2023-04-26T12:02:48.957Z,14.29
2023-04-26T12:05:24.816Z,13.70
2023-04-26T12:07:56.774Z,13.61
2023-04-26T12:10:27.276Z,13.17
2023-04-26T12:12:56.227Z,12.88
2023-04-26T12:15:23.653Z,12.57
2023-04-26T12:17:54.868Z,12.20
2023-04-26T12:20:32.116Z,12.11
2023-04-26T12:22:59.454Z,11.71
2023-04-26T12:25:26.012Z,11.60
2023-04-26T12:27:52.706Z,11.36
2023-04-26T12:30:19.154Z,11.81
2023-04-26T12:32:45.641Z,11.75
2023-04-26T12:35:12.115Z,11.63
2023-04-26T12:37:38.686Z,11.82
2023-04-26T12:40:07.046Z,12.06
2023-04-26T12:42:33.733Z,12.36
2023-04-26T12:45:06.130Z,12.98
2023-04-26T12:47:32.870Z,12.61
2023-04-26T12:50:01.292Z,12.68
2023-04-26T12:52:28.189Z,12.68
2023-04-26T12:54:54.737Z,12.46
2023-04-26T12:57:24.362Z,12.35
2023-04-26T12:59:51.028Z,12.23
2023-04-26T13:02:17.655Z,11.93
2023-04-26T13:04:44.356Z,12.80
2023-04-26T13:07:11.201Z,13.04
2023-04-26T13:09:37.840Z,12.74
2023-04-26T13:12:04.865Z,13.00
2023-04-26T13:14:31.278Z,12.76
2023-04-26T13:16:57.706Z,12.60
2023-04-26T13:19:24.106Z,11.84
2023-04-26T13:21:52.466Z,11.91
2023-04-26T13:24:18.958Z,11.68
2023-04-26T13:26:45.325Z,12.06
2023-04-26T13:29:11.717Z,11.57
2023-04-26T13:31:39.953Z,11.70
2023-04-26T13:34:07.276Z,11.89
2023-04-26T13:36:34.111Z,11.77
2023-04-26T13:39:01.363Z,11.65
2023-04-26T13:41:29.308Z,11.48
2023-04-26T13:43:55.813Z,11.69
2023-04-26T13:46:22.559Z,11.48
2023-04-26T13:48:49.034Z,11.78
2023-04-26T13:51:15.518Z,11.80
2023-04-26T13:53:41.938Z,12.19
2023-04-26T13:56:09.604Z,12.11
2023-04-26T13:58:36.725Z,12.63
2023-04-26T14:01:03.390Z,13.01
2023-04-26T14:03:30.263Z,12.83
2023-04-26T14:05:56.792Z,12.34
2023-04-26T14:08:23.199Z,12.48
2023-04-26T14:10:49.606Z,12.31
2023-04-26T14:13:16.181Z,12.72
2023-04-26T14:15:42.838Z,12.10
2023-04-26T14:18:10.518Z,12.40
2023-04-26T14:20:36.962Z,11.81
2023-04-26T14:23:03.439Z,11.96
2023-04-26T14:25:30.040Z,12.08
2023-04-26T14:27:56.451Z,12.23
2023-04-26T14:30:24.482Z,11.91
2023-04-26T14:32:50.915Z,12.14
2023-04-26T14:35:17.436Z,11.84
2023-04-26T14:37:43.886Z,11.77
2023-04-26T14:40:11.171Z,11.76
2023-04-26T14:42:38.358Z,11.72
2023-04-26T14:45:04.972Z,11.62
2023-04-26T14:47:31.452Z,11.73
2023-04-26T14:49:58.002Z,11.64
2023-04-26T14:52:27.098Z,11.76
2023-04-26T14:54:53.786Z,11.16
2023-04-26T14:57:20.268Z,11.07
2023-04-26T14:59:46.949Z,10.99
2023-04-26T15:02:13.523Z,11.22
2023-04-26T15:04:40.269Z,11.21
2023-04-26T15:07:07.688Z,10.79
2023-04-26T15:09:36.553Z,10.59
2023-04-26T15:12:04.726Z,10.86
2023-04-26T15:14:31.613Z,10.96
2023-04-26T15:16:58.333Z,11.21
2023-04-26T15:19:24.798Z,11.17
2023-04-26T15:21:51.172Z,11.20
2023-04-26T15:24:20.242Z,11.30
2023-04-26T15:26:46.733Z,11.02
2023-04-26T15:29:13.596Z,11.77
2023-04-26T15:31:40.293Z,11.63
2023-04-26T15:34:06.917Z,11.70
2023-04-26T15:36:33.311Z,11.61
2023-04-26T15:38:59.835Z,11.29
2023-04-26T15:41:26.367Z,11.07
2023-04-26T15:43:56.089Z,11.44
2023-04-26T15:46:23.137Z,11.28
2023-04-26T15:48:49.725Z,11.20
2023-04-26T15:51:16.403Z,11.26
2023-04-26T15:53:44.091Z,11.52
2023-04-26T15:56:14.246Z,11.55
2023-04-26T15:58:43.712Z,11.24
2023-04-26T16:01:10.148Z,11.35
2023-04-26T16:03:36.944Z,11.51
2023-04-26T16:06:04.264Z,11.58
2023-04-26T16:08:39.815Z,11.48
2023-04-26T16:11:06.781Z,11.63
2023-04-26T16:13:33.884Z,11.36
2023-04-26T16:16:00.712Z,11.62
2023-04-26T16:18:30.056Z,11.59
2023-04-26T16:21:03.692Z,11.12
2023-04-26T16:23:30.259Z,11.15
2023-04-26T16:25:56.752Z,11.30
2023-04-26T16:28:23.299Z,11.29
2023-04-26T16:30:49.864Z,11.14
2023-04-26T16:33:16.338Z,10.85
2023-04-26T16:35:42.728Z,11.01
2023-04-26T16:38:09.150Z,11.10
2023-04-26T16:40:35.876Z,11.04
2023-04-26T16:43:02.413Z,10.87
2023-04-26T16:45:29.124Z,10.89
2023-04-26T16:47:55.595Z,10.88
2023-04-26T16:50:22.224Z,10.65
2023-04-26T16:52:48.875Z,10.86
2023-04-26T16:55:15.662Z,10.78
2023-04-26T16:57:44.143Z,10.59
2023-04-26T17:00:11.809Z,10.60
2023-04-26T17:02:40.457Z,10.54
2023-04-26T17:05:07.531Z,10.49
2023-04-26T17:07:34.192Z,10.48
2023-04-26T17:10:00.781Z,10.38
2023-04-26T17:12:27.269Z,10.44
2023-04-26T17:14:53.814Z,10.33
2023-04-26T17:17:20.210Z,10.43
2023-04-26T17:19:47.084Z,10.39
2023-04-26T17:22:13.979Z,10.20
2023-04-26T17:24:42.226Z,10.24
2023-04-26T17:27:08.785Z,10.15
2023-04-26T17:29:35.313Z,10.07
2023-04-26T17:32:01.862Z,10.04
2023-04-26T17:34:28.467Z,10.12
2023-04-26T17:36:54.938Z,10.11
2023-04-26T17:39:21.484Z,9.88
2023-04-26T17:41:47.977Z,9.92
2023-04-26T17:44:14.661Z,9.86
2023-04-26T17:46:41.683Z,9.83
2023-04-26T17:49:09.674Z,9.92
2023-04-26T17:51:36.295Z,9.82
2023-04-26T17:54:02.810Z,9.68
2023-04-26T17:56:29.321Z,9.62
2023-04-26T17:58:55.967Z,9.66
2023-04-26T18:01:23.093Z,9.65
2023-04-26T18:03:50.019Z,9.42
2023-04-26T18:06:19.362Z,9.29
2023-04-26T18:08:45.890Z,9.31
2023-04-26T18:11:12.406Z,9.46
2023-04-26T18:13:38.895Z,9.46
2023-04-26T18:16:05.479Z,9.46
2023-04-26T18:18:31.942Z,9.30
2023-04-26T18:20:58.361Z,9.27
2023-04-26T18:23:24.783Z,9.14
2023-04-26T18:25:51.473Z,9.18
2023-04-26T18:28:19.129Z,9.20
2023-04-26T18:30:45.657Z,9.16
2023-04-26T18:33:12.190Z,9.13
2023-04-26T18:35:38.665Z,9.05
2023-04-26T18:38:05.160Z,9.04
2023-04-26T18:40:31.618Z,8.98
2023-04-26T18:43:00.044Z,8.88
2023-04-26T18:45:26.524Z,8.95
2023-04-26T18:47:55.257Z,8.79
2023-04-26T18:50:22.249Z,8.76
2023-04-26T18:52:48.729Z,8.73
2023-04-26T18:55:15.325Z,8.54
2023-04-26T18:57:42.108Z,8.42
2023-04-26T19:00:08.818Z,8.32
2023-04-26T19:02:38.246Z,8.34
2023-04-26T19:05:05.881Z,8.19
2023-04-26T19:07:32.415Z,8.13
2023-04-26T19:10:01.065Z,8.02
2023-04-26T19:12:27.780Z,7.88
2023-04-26T19:14:55.208Z,7.67
2023-04-26T19:17:22.304Z,7.50
2023-04-26T19:19:55.494Z,7.26
2023-04-26T19:22:21.979Z,7.18
2023-04-26T19:24:48.892Z,7.02
2023-04-26T19:27:15.746Z,6.96
2023-04-26T19:29:42.330Z,6.88
2023-04-26T19:32:08.852Z,6.75
2023-04-26T19:34:36.540Z,6.63
2023-04-26T19:37:04.214Z,6.49
2023-04-26T19:39:30.672Z,6.31
2023-04-26T19:41:57.207Z,6.32
2023-04-26T19:44:23.787Z,6.12
2023-04-26T19:46:50.629Z,5.92
2023-04-26T19:49:17.095Z,6.03
2023-04-26T19:51:43.982Z,6.04
2023-04-26T19:54:10.819Z,6.00
2023-04-26T19:56:37.261Z,6.03
2023-04-26T19:59:04.244Z,6.05
2023-04-26T20:01:32.588Z,5.98
2023-04-26T20:03:59.206Z,5.94
2023-04-26T20:06:26.236Z,5.89
2023-04-26T20:08:54.822Z,5.89
2023-04-26T20:11:22.608Z,5.80
2023-04-26T20:13:49.134Z,5.75
2023-04-26T20:16:16.607Z,5.60
2023-04-26T20:18:43.705Z,5.53
2023-04-26T20:21:10.329Z,5.44
2023-04-26T20:23:37.430Z,5.51
2023-04-26T20:26:03.977Z,5.34
2023-04-26T20:28:30.580Z,5.37
2023-04-26T20:30:57.086Z,5.27
2023-04-26T20:33:23.695Z,5.19
2023-04-26T20:35:50.371Z,5.28
2023-04-26T20:38:16.863Z,5.29
2023-04-26T20:40:43.315Z,5.27
2023-04-26T20:43:10.324Z,5.29
2023-04-26T20:45:37.252Z,5.36
2023-04-26T20:48:04.020Z,5.24
2023-04-26T20:50:30.495Z,5.41
2023-04-26T20:52:57.433Z,5.38
2023-04-26T20:55:24.886Z,5.27
2023-04-26T20:57:51.498Z,5.37
2023-04-26T21:00:18.204Z,5.18
2023-04-26T21:02:44.931Z,5.23
2023-04-26T21:05:11.437Z,5.24
2023-04-26T21:07:37.847Z,5.24
2023-04-26T21:10:04.751Z,5.17
2023-04-26T21:12:31.167Z,5.19
2023-04-26T21:14:57.518Z,5.24
2023-04-26T21:17:24.059Z,5.30
2023-04-26T21:19:50.998Z,5.26
2023-04-26T21:22:22.242Z,5.26
2023-04-26T21:24:50.984Z,5.25
2023-04-26T21:27:17.487Z,5.09
2023-04-26T21:29:43.847Z,4.96
2023-04-26T21:32:10.344Z,5.04
2023-04-26T21:34:37.382Z,4.98
2023-04-26T21:37:03.872Z,4.96
2023-04-26T21:39:30.297Z,4.91
2023-04-26T21:41:56.752Z,4.84
2023-04-26T21:44:23.211Z,4.79
2023-04-26T21:46:51.218Z,4.87
2023-04-26T21:49:17.754Z,4.91
2023-04-26T21:51:44.400Z,4.88
2023-04-26T21:54:10.999Z,4.81
2023-04-26T21:56:37.566Z,4.79
2023-04-26T21:59:04.913Z,4.71
2023-04-26T22:01:31.682Z,4.76
2023-04-26T22:03:58.518Z,4.75
2023-04-26T22:06:25.643Z,4.73
2023-04-26T22:08:52.093Z,4.80
2023-04-26T22:11:18.651Z,4.72
2023-04-26T22:13:45.199Z,4.79
2023-04-26T22:16:11.883Z,4.74
2023-04-26T22:18:38.452Z,4.67
2023-04-26T22:21:05.132Z,4.64
2023-04-26T22:23:31.616Z,4.54
2023-04-26T22:25:59.799Z,4.50
2023-04-26T22:28:26.805Z,4.47
2023-04-26T22:30:53.282Z,4.48
2023-04-26T22:33:19.770Z,4.44
2023-04-26T22:35:46.188Z,4.48
2023-04-26T22:38:12.643Z,4.37
2023-04-26T22:40:39.052Z,4.39
2023-04-26T22:43:06.200Z,4.43
2023-04-26T22:45:33.597Z,4.42
2023-04-26T22:48:00.256Z,4.40
2023-04-26T22:50:26.751Z,4.52
2023-04-26T22:52:53.242Z,4.53
2023-04-26T22:55:19.797Z,4.62
2023-04-26T22:57:46.638Z,4.64
2023-04-26T23:00:14.688Z,4.58
2023-04-26T23:02:41.378Z,4.56
2023-04-26T23:05:10.824Z,4.57
2023-04-26T23:07:41.826Z,4.45
2023-04-26T23:10:08.493Z,4.37
2023-04-26T23:12:36.875Z,4.40
2023-04-26T23:15:05.353Z,4.41
2023-04-26T23:17:34.338Z,4.44
2023-04-26T23:20:01.172Z,4.47
2023-04-26T23:22:28.254Z,4.39
2023-04-26T23:24:54.765Z,4.22
2023-04-26T23:27:21.240Z,4.30
2023-04-26T23:29:49.709Z,4.26
2023-04-26T23:32:16.375Z,4.26
2023-04-26T23:34:45.540Z,4.20
2023-04-26T23:37:12.044Z,4.22
2023-04-26T23:39:38.556Z,4.16
2023-04-26T23:42:05.132Z,4.24
2023-04-26T23:44:31.618Z,4.27
2023-04-26T23:46:58.113Z,4.37
2023-04-26T23:49:24.817Z,4.33
2023-04-26T23:51:51.517Z,4.34
2023-04-26T23:54:18.245Z,4.25
2023-04-26T23:56:44.716Z,4.21
2023-04-26T23:59:11.735Z,4.30
